Nationale NO Noisy-sur-Ecole (77) - H

Date : 20/03/2011
Distance : 3,000 km

Place Nom Licence Catégorie Club Temps min/km CN à J-60 Points Différence Nouveau CN
1 CROCHET Gerard 2817 H70 1705PC 0:33:25 11'08 4185 4522 +337 4301
2 ANTOINE Regis 1276 H70 7108BO 0:35:25 11'48 3679 4267 +588 3890
3 HELIOT Claude 2349 H70 2604RA 0:35:56 11'58 4152 4205 +53 4255
4 GANDON J-Claude 249 H70 6906RA 0:37:09 12'23 3833 4068 +235 4036
5 ROBERT Martine 1087 D60 7004FC 0:37:22 12'27 3643 4044 +401 3785
6 TESTOUD Philippe 935 H70 7707IF 0:38:54 12'58 3106 3885 +779 3424
7 PIGER Albert 116 H70 4504CE 0:43:36 14'32 3584 3466 -118 3717
8 RIFFARD J-Claude 2445 H70 5702LO 0:43:36 14'32 2854 3466 +612 3094
9 PROST Gisele 2182 D60 9307IF 0:44:04 14'41 2950 3429 +479 3197
10 CHALOPIN Catherine 3674 D60 2105BO 0:45:12 15'04 3763 3343 -420 3763
11 OUDIN M-Reine 7574 D60 6804AL 0:46:02 15'20 3698 3283 -415 3726
12 DEVILLE Nelly 2401 D60 5402LO 0:46:52 15'37 4368 3224 -1144 4511
13 EUZEN J-Paul 16403 H70 6911RA 0:48:55 16'18 3804 3089 -715 3804
14 CONIEL Anne 14884 D40 5604BR 0:49:05 16'21 3567 3079 -488 3654
15 LABEUR Roselyne 905 D60 7707IF 0:49:15 16'25 2768 3068 +300 2868
16 GOZE Anne 22931 D55 5907NO 0:49:37 16'32 2012 3046 +1034 2660
17 DIEUDONNE Madeleine 1380 D60 7808IF 0:50:00 16'40 3928 3022 -906 3926
18 SIMONET Marie 931 D60 7707IF 0:50:17 16'45 2619 3005 +386 2793
19 ENARD Monique 2664 D60 2101BO 0:52:19 17'26 3466 2888 -578 3466
20 BELDOWSKI Andrew 18509 H70 2208BR 0:53:09 17'43 2635 2843 +208 2728
21 RICHARD Nicole 14245 D60 0207PI 0:53:38 17'52 3274 2818 -456 3317
22 POGU Paulette 4671 D60 5402LO 0:53:38 17'52 2951 2818 -133 2992
23 GAWSEWITCH Gerald 3370 H70 7707IF 0:53:46 17'55 1786 2811 +1025 2333
24 JOLY Mauricette 310 D50 6803AL 0:53:51 17'57 2806 2363
25 HABERKORN Didier 2716 H70 2105BO 0:54:11 18'03 3520 2789 -731 3520
26 BERGER M-Jose 7182 D60 5703LO 0:54:47 18'15 3252 2758 -494 3252
27 PIGER Ghislaine 117 D70 4504CE 0:54:54 18'18 2403 2753 +350 2526
28 DESAINTJAN Claude 2547 H70 6804AL 0:55:29 18'29 2738 2724 -14 2920
29 GUICHARDON Georges 570 H70 4504CE 0:55:48 18'36 2289 2708 +419 2515
30 RIFFARD M-Lucie 2446 D65 5702LO 0:55:51 18'37 2875 2706 -169 2891
31 PROST Daniel 2181 H70 9307IF 0:56:05 18'41 2703 2694 -9 2729
32 MERIGUET Valérie 16687 D40 7807IF 0:56:08 18'42 2177 2692 +515 2381
33 COCAUT Yvonne 5497 D65 5604BR 0:56:15 18'45 2832 2686 -146 2835
34 LAPERNAT Estelle 22448 D35 5907NO 0:56:54 18'58 2663 2656 -7 2725
35 ABISSE Gisele 701 D65 2508FC 0:58:52 19'37 3000 2567 -433 3025
36 LECOYER Annick 2885 D60 0207PI 0:59:31 19'50 2997 2539 -458 2973
37 PLAGNE Eliane 20 D60 4204RA 0:59:42 19'54 2518 2531 +13 2556
38 BEAUVISAGE Fabienne 13740 D45 7807IF 0:59:50 19'56 2687 2526 -161 2649
39 RUAUD Agnes 739 D60 2508FC 1:00:29 20'09 2447 2498 +51 2527
40 JUDAS Sylvaine 13635 D55 6208NO 1:00:51 20'17 1734 2483 +749 2389
41 LUDEWIG-JAMES Carol 15894 D70 5907NO 1:01:34 20'31 2160 2455 +295 2414
42 POUPIER Claudine 13991 D60 7203PL 1:01:38 20'32 2139 2452 +313 2364
43 BEGU Aurore 9042 D35 7707IF 1:03:18 21'06 1963 2387 +424 2140
44 RABALLARD Emmanuelle 22062 D40 8607PC 1:03:31 21'10 1935 2379 +444 2081
45 FRANTZ Francoise 6886 D60 2904BR 1:04:05 21'21 3710 2358 -1352 3710
46 LEFOUEST Joseph 1000 H70 2904BR 1:06:16 22'05 3396 2280 -1116 3396
47 DESAINTJAN Alice 2546 D70 6804AL 1:07:11 22'23 1545 2249 +704 1888
48 MOULIERE M-Bernadette 2888 D65 0207PI 1:07:21 22'27 3138 2244 -894 3138
49 LARMINACH Genevieve 647 D65 3308AQ 1:07:35 22'31 2532 2236 -296 2558
50 LEFOUEST M-Therese 1001 D70 2904BR 1:11:36 23'52 2260 2111 -149 2288
51 CABON Monique 96 D60 2904BR 1:12:16 24'05 2879 2091 -788 2879
52 THIEBAULT M-Paule 4490 D60 6804AL 1:13:02 24'20 2003 2069 +66 2075
53 BREMAUD Veronique 5804 D50 1202MP 1:14:03 24'41 2415 2041 -374 2555
54 DENIS Martine 12377 D65 9307IF 1:14:08 24'42 2547 2038 -509 2486
55 DODIN Genevieve 4392 D60 8809LO 1:14:14 24'44 2315 2036 -279 2427
56 PECOURT Muriel 10156 D40 2904BR 1:15:35 25'11 1999 1928
57 VESCOVO Odile 368 D65 6803AL 1:16:11 25'23 2306 1984 -322 2306
58 BOULESTREAU Francoise 11308 D45 2904BR 1:17:21 25'47 2606 1954 -652 2642
59 REBET A-Marie 8286 D50 7108BO 1:21:56 27'18 1715 1844 +129 1761
60 ALLANCON Claudine 14632 D60 2906BR 1:22:38 27'32 2103 1829 -274 2103
61 QUEYROI Yvette 14021 D45 3308AQ 1:23:19 27'46 1995 1814 -181 1995
62 BIGOT Yvette 6980 D70 8903BO 1:31:17 30'25 1525 1655 +130 1611
63 GOURVIL Elisabeth 18473 D45 3705CE 1:31:18 30'26 1548 1655 +107 1601
64 PANNIER Karine 22936 D40 7807IF 1:37:57 32'39 1253 1543 +290 1354
65 BASTIEN-FATH Nicole 8954 D65 5402LO 1:42:15 34'05 2265 1478 -787 2265
66 CHARDOT Ulrike 22314 D45 7807IF 1:49:55 36'38 2225 1375 -850 2267
67 LAUNEY Noella 11368 D70 7203PL 1:59:20 39'46 2074 1266 -808 2095
BORNARD Fabienne 8427 D40 7305RA pm None 2733 0 2789
LEMERCIER Jocelyne 2474 D60 5407LO pm None 2752 0 2752
MOREAU Elisabeth 23799 D40 7808IF pm None 1601 0 1896
DANEL Maud 23661 D35 7808IF pm None 0 0
LAZAROWICZ Rose-Marie 3598 D60 7512IF pm None 1746 0 1815